createdAt,value
2023-06-11T00:02:14.203Z,99875.03
2023-06-11T00:05:18.636Z,99881.09
2023-06-11T00:08:21.419Z,99878.09
2023-06-11T00:11:24.845Z,99878.81
2023-06-11T00:14:28.211Z,99879.78
2023-06-11T00:17:34.022Z,99886.31
2023-06-11T00:20:41.960Z,99880.56
2023-06-11T00:23:47.769Z,99891.00
2023-06-11T00:26:50.619Z,99891.59
2023-06-11T00:29:55.397Z,99896.19
2023-06-11T00:32:58.312Z,99891.81
2023-06-11T00:36:02.106Z,99889.97
2023-06-11T00:39:06.600Z,99883.81
2023-06-11T00:42:11.492Z,99894.03
2023-06-11T00:45:14.474Z,99887.78
2023-06-11T00:48:23.320Z,99886.41
2023-06-11T00:51:26.977Z,99883.12
2023-06-11T00:54:30.426Z,99885.31
2023-06-11T00:57:33.644Z,99886.81
2023-06-11T01:00:36.938Z,99885.47
2023-06-11T01:03:42.643Z,99890.91
2023-06-11T01:06:51.114Z,99886.41
2023-06-11T01:09:54.523Z,99887.44
2023-06-11T01:12:57.805Z,99887.91
2023-06-11T01:16:21.732Z,99880.69
2023-06-11T01:19:55.931Z,99882.13
2023-06-11T01:23:14.359Z,99885.75
2023-06-11T01:26:38.817Z,99887.78
2023-06-11T01:29:46.896Z,99885.13
2023-06-11T01:32:57.281Z,99873.72
2023-06-11T01:36:06.902Z,99878.31
2023-06-11T01:39:12.960Z,99883.59
2023-06-11T01:42:16.629Z,99887.81
2023-06-11T01:45:20.632Z,99893.66
2023-06-11T01:48:23.350Z,99882.13
2023-06-11T01:51:26.721Z,99886.63
2023-06-11T01:54:29.579Z,99885.94
2023-06-11T01:57:36.167Z,99893.56
2023-06-11T02:00:39.325Z,99893.53
2023-06-11T02:03:42.640Z,99899.00
2023-06-11T02:06:45.479Z,99895.50
2023-06-11T02:09:48.652Z,99901.56
2023-06-11T02:12:51.902Z,99900.50
2023-06-11T02:15:55.032Z,99909.34
2023-06-11T02:18:57.816Z,99900.97
2023-06-11T02:22:00.900Z,99920.41
2023-06-11T02:25:03.796Z,99913.03
2023-06-11T02:28:07.497Z,99916.44
2023-06-11T02:31:10.744Z,99916.44
2023-06-11T02:34:13.938Z,99917.25
2023-06-11T02:37:16.665Z,99913.72
2023-06-11T02:40:19.974Z,99924.47
2023-06-11T02:43:22.754Z,99915.28
2023-06-11T02:46:25.952Z,99911.13
2023-06-11T02:49:28.893Z,99910.69
2023-06-11T02:52:32.012Z,99908.09
2023-06-11T02:55:34.767Z,99905.78
2023-06-11T02:58:38.035Z,99921.53
2023-06-11T03:01:41.094Z,99924.91
2023-06-11T03:04:45.054Z,99920.00
2023-06-11T03:07:47.999Z,99922.72
2023-06-11T03:10:51.320Z,99939.91
2023-06-11T03:13:54.565Z,99930.41
2023-06-11T03:16:57.702Z,99936.09
2023-06-11T03:20:00.527Z,99929.72
2023-06-11T03:23:03.868Z,99940.13
2023-06-11T03:26:06.719Z,99941.50
2023-06-11T03:29:10.065Z,99940.97
2023-06-11T03:32:14.978Z,99941.94
2023-06-11T03:35:18.869Z,99938.59
2023-06-11T03:38:22.510Z,99944.53
2023-06-11T03:41:27.341Z,99941.25
2023-06-11T03:44:30.517Z,99945.22
2023-06-11T03:47:37.253Z,99949.09
2023-06-11T03:50:40.294Z,99941.84
2023-06-11T03:53:44.304Z,99949.53
2023-06-11T03:56:47.546Z,99950.81
2023-06-11T03:59:50.630Z,99949.47
2023-06-11T04:02:58.903Z,99943.84
2023-06-11T04:06:03.516Z,99952.91
2023-06-11T04:09:07.410Z,99945.63
2023-06-11T04:12:11.513Z,99943.75
2023-06-11T04:15:14.816Z,99952.03
2023-06-11T04:18:18.117Z,99945.19
2023-06-11T04:21:21.192Z,99950.59
2023-06-11T04:24:27.024Z,99941.84
2023-06-11T04:27:35.137Z,99957.84
2023-06-11T04:30:40.788Z,99953.91
2023-06-11T04:33:44.135Z,99947.31
2023-06-11T04:36:48.890Z,99952.22
2023-06-11T04:39:52.353Z,99951.19
2023-06-11T04:42:55.842Z,99957.78
2023-06-11T04:45:58.992Z,99959.16
2023-06-11T04:49:05.348Z,99955.66
2023-06-11T04:52:09.725Z,99960.06
2023-06-11T04:55:13.804Z,99952.66
2023-06-11T04:58:17.162Z,99957.78
2023-06-11T05:01:22.102Z,99959.59
2023-06-11T05:04:25.547Z,99957.91
2023-06-11T05:07:30.487Z,99965.31
2023-06-11T05:10:33.576Z,99961.00
2023-06-11T05:13:38.540Z,99971.47
2023-06-11T05:16:42.118Z,99973.94
2023-06-11T05:19:45.740Z,99970.59
2023-06-11T05:22:48.996Z,99971.81
2023-06-11T05:25:52.011Z,99976.22
2023-06-11T05:28:55.206Z,99965.06
2023-06-11T05:31:59.691Z,99965.47
2023-06-11T05:35:04.345Z,99962.06
2023-06-11T05:38:07.971Z,99972.56
2023-06-11T05:41:11.762Z,99972.06
2023-06-11T05:44:15.460Z,99971.59
2023-06-11T05:47:19.024Z,99968.88
2023-06-11T05:50:23.491Z,99964.13
2023-06-11T05:53:26.314Z,99975.09
2023-06-11T05:56:29.337Z,99963.84
2023-06-11T05:59:32.161Z,99966.22
2023-06-11T06:02:35.306Z,99967.16
2023-06-11T06:05:38.982Z,99969.91
2023-06-11T06:08:43.936Z,99966.00
2023-06-11T06:11:48.796Z,99962.78
2023-06-11T06:14:51.823Z,99975.69
2023-06-11T06:17:55.229Z,99971.19
2023-06-11T06:20:59.015Z,99972.38
2023-06-11T06:24:02.579Z,99974.16
2023-06-11T06:27:06.283Z,99976.28
2023-06-11T06:30:10.889Z,99983.94
2023-06-11T06:33:14.256Z,99980.31
2023-06-11T06:36:22.730Z,99988.34
2023-06-11T06:39:26.891Z,99990.28
2023-06-11T06:42:30.635Z,99999.41
2023-06-11T06:45:34.973Z,99998.00
2023-06-11T06:48:38.788Z,99997.50
2023-06-11T06:51:41.574Z,100001.59
2023-06-11T06:54:44.920Z,100002.87
2023-06-11T06:57:47.824Z,99992.66
2023-06-11T07:00:51.044Z,99991.75
2023-06-11T07:03:55.124Z,99989.78
2023-06-11T07:06:58.862Z,99998.44
2023-06-11T07:10:01.477Z,100001.88
2023-06-11T07:13:06.708Z,99998.75
2023-06-11T07:16:09.767Z,99997.28
2023-06-11T07:19:14.067Z,99993.28
2023-06-11T07:22:17.103Z,99996.22
2023-06-11T07:25:20.583Z,99993.06
2023-06-11T07:28:23.766Z,99993.09
2023-06-11T07:31:31.754Z,99993.69
2023-06-11T07:34:34.797Z,99996.44
2023-06-11T07:37:37.999Z,99992.75
2023-06-11T07:40:41.778Z,99992.13
2023-06-11T07:43:45.752Z,100006.47
2023-06-11T07:46:48.922Z,99999.94
2023-06-11T07:49:52.474Z,100004.22
2023-06-11T07:52:55.345Z,99996.38
2023-06-11T07:56:01.348Z,99991.28
2023-06-11T07:59:04.460Z,100008.25
2023-06-11T08:02:08.854Z,100003.78
2023-06-11T08:05:12.980Z,100007.09
2023-06-11T08:08:15.959Z,100005.91
2023-06-11T08:11:19.174Z,100014.47
2023-06-11T08:14:22.311Z,100021.72
2023-06-11T08:17:25.860Z,100023.31
2023-06-11T08:20:31.481Z,100033.34
2023-06-11T08:23:39.313Z,100021.28
2023-06-11T08:26:42.258Z,100024.41
2023-06-11T08:29:45.195Z,100025.34
2023-06-11T08:32:48.123Z,100017.00
2023-06-11T08:35:51.445Z,100021.75
2023-06-11T08:38:54.117Z,100024.13
2023-06-11T08:41:57.269Z,100019.41
2023-06-11T08:45:00.157Z,100022.81
2023-06-11T08:48:04.802Z,100017.91
2023-06-11T08:51:13.676Z,100021.69
2023-06-11T08:54:18.117Z,100023.00
2023-06-11T08:57:21.698Z,100027.44
2023-06-11T09:00:25.165Z,100032.66
2023-06-11T09:03:28.110Z,100030.28
2023-06-11T09:06:31.387Z,100011.31
2023-06-11T09:09:34.061Z,100024.94
2023-06-11T09:12:37.755Z,100007.69
2023-06-11T09:15:48.731Z,100022.41
2023-06-11T09:18:51.991Z,100019.03
2023-06-11T09:21:57.601Z,100010.84
2023-06-11T09:25:07.247Z,100020.53
2023-06-11T09:28:11.686Z,100021.47
2023-06-11T09:31:20.168Z,100021.75
2023-06-11T09:34:24.305Z,100007.03
2023-06-11T09:37:27.613Z,100007.78
2023-06-11T09:40:35.648Z,100010.84
2023-06-11T09:43:40.533Z,100016.84
2023-06-11T09:46:43.424Z,100007.25
2023-06-11T09:49:46.601Z,100007.91
2023-06-11T09:52:51.608Z,99999.69
2023-06-11T09:56:09.291Z,100003.59
2023-06-11T09:59:16.537Z,100011.62
2023-06-11T10:02:19.707Z,100011.56
2023-06-11T10:05:23.222Z,100001.88
2023-06-11T10:08:31.818Z,100005.16
2023-06-11T10:11:40.263Z,100007.78
2023-06-11T10:14:51.015Z,100008.59
2023-06-11T10:17:55.630Z,100006.28
2023-06-11T10:21:03.766Z,100001.78
2023-06-11T10:24:07.854Z,100006.87
2023-06-11T10:27:15.688Z,100008.28
2023-06-11T10:30:25.799Z,100010.31
2023-06-11T10:33:43.398Z,100000.25
2023-06-11T10:36:46.626Z,100015.28
2023-06-11T10:39:52.961Z,100003.41
2023-06-11T10:42:56.282Z,99999.88
2023-06-11T10:46:05.864Z,99993.94
2023-06-11T10:49:15.872Z,99999.63
2023-06-11T10:52:18.988Z,99997.50
2023-06-11T10:55:23.514Z,99989.47
2023-06-11T10:58:28.446Z,100002.97
2023-06-11T11:01:32.836Z,99993.25
2023-06-11T11:04:35.701Z,100001.59
2023-06-11T11:07:38.875Z,99998.41
2023-06-11T11:10:41.644Z,99988.06
2023-06-11T11:13:47.159Z,100002.44
2023-06-11T11:16:50.713Z,100003.66
2023-06-11T11:19:54.944Z,100002.19
2023-06-11T11:22:58.590Z,99998.22
2023-06-11T11:26:01.925Z,99986.56
2023-06-11T11:29:04.791Z,99988.63
2023-06-11T11:32:10.437Z,99997.09
2023-06-11T11:35:18.047Z,99986.06
2023-06-11T11:38:22.625Z,99994.13
2023-06-11T11:41:25.455Z,99985.19
2023-06-11T11:44:39.095Z,99992.09
2023-06-11T11:47:43.845Z,99991.06
2023-06-11T11:50:50.741Z,99985.94
2023-06-11T11:53:53.610Z,99997.19
2023-06-11T11:57:04.054Z,99994.69
2023-06-11T12:00:08.652Z,99992.09
2023-06-11T12:03:12.682Z,99979.53
2023-06-11T12:06:25.095Z,99976.97
2023-06-11T12:09:29.933Z,99983.53
2023-06-11T12:12:32.661Z,99978.47
2023-06-11T12:15:35.915Z,99977.19
2023-06-11T12:18:38.943Z,99985.34
2023-06-11T12:21:42.105Z,99983.88
2023-06-11T12:24:44.990Z,99973.66
2023-06-11T12:27:48.200Z,99980.03
2023-06-11T12:30:51.029Z,99972.53
2023-06-11T12:33:54.029Z,99974.88
2023-06-11T12:36:57.437Z,99971.78
2023-06-11T12:40:00.834Z,99969.13
2023-06-11T12:43:03.936Z,99966.06
2023-06-11T12:46:08.700Z,99971.03
2023-06-11T12:49:11.648Z,99971.97
2023-06-11T12:52:14.736Z,99977.31
2023-06-11T12:55:17.686Z,99971.63
2023-06-11T12:58:21.222Z,99970.06
2023-06-11T13:01:24.550Z,99969.06
2023-06-11T13:04:27.633Z,99966.06
2023-06-11T13:07:30.658Z,99968.38
2023-06-11T13:10:33.711Z,99979.09
2023-06-11T13:13:36.570Z,99966.09
2023-06-11T13:16:42.865Z,99963.56
2023-06-11T13:19:46.027Z,99972.34
2023-06-11T13:22:49.136Z,99962.03
2023-06-11T13:25:51.937Z,99970.81
2023-06-11T13:28:55.015Z,99960.03
2023-06-11T13:31:58.180Z,99960.84
2023-06-11T13:35:01.256Z,99971.78
2023-06-11T13:38:04.302Z,99966.75
2023-06-11T13:41:07.994Z,99969.59
2023-06-11T13:44:10.974Z,99966.03
2023-06-11T13:47:14.288Z,99964.16
2023-06-11T13:50:17.363Z,99962.25
2023-06-11T13:53:21.058Z,99959.22
2023-06-11T13:56:24.061Z,99945.03
2023-06-11T13:59:27.209Z,99947.03
2023-06-11T14:02:30.880Z,99957.66
2023-06-11T14:05:37.490Z,99959.97
2023-06-11T14:08:40.291Z,99963.16
2023-06-11T14:11:43.567Z,99961.25
2023-06-11T14:14:46.395Z,99962.91
2023-06-11T14:17:49.580Z,99968.16
2023-06-11T14:20:52.424Z,99969.25
2023-06-11T14:23:55.596Z,99969.41
2023-06-11T14:26:58.477Z,99965.25
2023-06-11T14:30:02.098Z,99959.75
2023-06-11T14:33:05.157Z,99962.28
2023-06-11T14:36:08.659Z,99966.69
2023-06-11T14:39:11.531Z,99975.03
2023-06-11T14:42:14.604Z,99966.69
2023-06-11T14:45:17.825Z,99952.78
2023-06-11T14:48:21.208Z,99958.78
2023-06-11T14:51:24.296Z,99962.97
2023-06-11T14:54:27.466Z,99961.47
2023-06-11T14:57:30.317Z,99967.12
2023-06-11T15:00:33.811Z,99972.38
2023-06-11T15:03:36.690Z,99962.63
2023-06-11T15:06:40.997Z,99966.59
2023-06-11T15:09:46.059Z,99969.47
2023-06-11T15:12:49.172Z,99968.84
2023-06-11T15:15:52.392Z,99968.84
2023-06-11T15:18:56.381Z,99974.47
2023-06-11T15:22:03.060Z,99976.53
2023-06-11T15:25:07.073Z,99977.19
2023-06-11T15:28:11.072Z,99973.25
2023-06-11T15:31:15.826Z,99974.62
2023-06-11T15:34:21.403Z,99985.50
2023-06-11T15:37:25.752Z,99989.62
2023-06-11T15:40:28.940Z,99992.94
2023-06-11T15:43:32.069Z,99994.97
2023-06-11T15:46:34.818Z,99987.88
2023-06-11T15:49:38.115Z,99996.06
2023-06-11T15:52:40.931Z,99992.09
2023-06-11T15:55:44.084Z,99998.69
2023-06-11T15:58:46.845Z,100003.66
2023-06-11T16:01:49.874Z,99998.94
2023-06-11T16:04:52.980Z,100001.22
2023-06-11T16:07:55.800Z,100005.63
2023-06-11T16:10:58.848Z,100007.84
2023-06-11T16:14:02.430Z,100012.97
2023-06-11T16:17:05.600Z,100002.87
2023-06-11T16:20:09.876Z,100005.69
2023-06-11T16:23:13.266Z,99999.94
2023-06-11T16:26:16.127Z,100013.81
2023-06-11T16:29:19.286Z,100017.41
2023-06-11T16:32:22.132Z,100020.97
2023-06-11T16:35:25.291Z,100031.16
2023-06-11T16:38:28.132Z,100040.91
2023-06-11T16:41:34.172Z,100043.03
2023-06-11T16:44:37.076Z,100039.63
2023-06-11T16:47:40.248Z,100042.72
2023-06-11T16:50:42.995Z,100062.00
2023-06-11T16:53:46.276Z,100059.34
2023-06-11T16:56:49.041Z,100061.31
2023-06-11T16:59:52.259Z,100068.53
2023-06-11T17:02:56.231Z,100068.69
2023-06-11T17:05:59.337Z,100066.09
2023-06-11T17:09:02.098Z,100077.06
2023-06-11T17:12:05.551Z,100076.41
2023-06-11T17:15:11.182Z,100077.97
2023-06-11T17:18:14.342Z,100086.22
2023-06-11T17:21:17.309Z,100078.66
2023-06-11T17:24:20.363Z,100078.31
2023-06-11T17:27:23.331Z,100079.47
2023-06-11T17:30:26.570Z,100082.75
2023-06-11T17:33:29.660Z,100082.88
2023-06-11T17:36:32.681Z,100083.00
2023-06-11T17:39:35.606Z,100090.34
2023-06-11T17:42:44.982Z,100079.03
2023-06-11T17:45:49.663Z,100090.47
2023-06-11T17:48:54.198Z,100089.47
2023-06-11T17:51:56.920Z,100086.75
2023-06-11T17:55:02.225Z,100091.59
2023-06-11T17:58:04.967Z,100079.22
2023-06-11T18:01:09.328Z,100079.97
2023-06-11T18:04:13.278Z,100085.06
2023-06-11T18:07:16.440Z,100087.00
2023-06-11T18:10:19.968Z,100078.09
2023-06-11T18:13:22.778Z,100078.84
2023-06-11T18:16:26.372Z,100079.84
2023-06-11T18:19:29.324Z,100092.41
2023-06-11T18:22:32.432Z,100090.47
2023-06-11T18:25:35.375Z,100094.87
2023-06-11T18:28:38.523Z,100091.34
2023-06-11T18:31:41.805Z,100099.50
2023-06-11T18:34:47.398Z,100100.41
2023-06-11T18:37:50.539Z,100108.50
2023-06-11T18:40:54.371Z,100105.91
2023-06-11T18:43:57.094Z,100104.91
2023-06-11T18:47:02.203Z,100108.28
2023-06-11T18:50:08.153Z,100110.94
2023-06-11T18:53:11.875Z,100113.44
2023-06-11T18:56:14.996Z,100112.53
2023-06-11T18:59:18.940Z,100119.97
2023-06-11T19:02:21.922Z,100117.50
2023-06-11T19:05:25.185Z,100118.09
2023-06-11T19:08:31.103Z,100115.50
2023-06-11T19:11:34.369Z,100119.84
2023-06-11T19:14:37.659Z,100129.94
2023-06-11T19:17:41.342Z,100136.03
2023-06-11T19:20:44.199Z,100133.81
2023-06-11T19:23:47.459Z,100135.59
2023-06-11T19:26:50.255Z,100141.81
2023-06-11T19:29:53.307Z,100151.63
2023-06-11T19:32:57.757Z,100156.06
2023-06-11T19:36:02.452Z,100159.88
2023-06-11T19:39:06.210Z,100161.91
2023-06-11T19:42:09.471Z,100167.56
2023-06-11T19:45:12.485Z,100177.00
2023-06-11T19:48:20.561Z,100169.59
2023-06-11T19:51:27.243Z,100174.09
2023-06-11T19:54:45.919Z,100169.25
2023-06-11T19:57:53.115Z,100171.72
2023-06-11T20:00:56.413Z,100170.81
2023-06-11T20:03:59.537Z,100174.69
2023-06-11T20:07:02.402Z,100179.03
2023-06-11T20:10:06.319Z,100173.97
2023-06-11T20:13:09.092Z,100179.84
2023-06-11T20:16:12.599Z,100173.59
2023-06-11T20:19:15.833Z,100176.37
2023-06-11T20:22:19.010Z,100178.75
2023-06-11T20:25:22.118Z,100183.19
2023-06-11T20:28:25.205Z,100176.94
2023-06-11T20:31:27.917Z,100177.03
2023-06-11T20:34:31.019Z,100185.41
2023-06-11T20:37:33.793Z,100189.28
2023-06-11T20:40:37.325Z,100190.94
2023-06-11T20:43:40.036Z,100186.88
2023-06-11T20:46:43.271Z,100193.94
2023-06-11T20:49:46.176Z,100191.53
2023-06-11T20:52:49.401Z,100184.50
2023-06-11T20:55:52.138Z,100185.78
2023-06-11T20:58:55.195Z,100187.06
2023-06-11T21:01:58.477Z,100184.16
2023-06-11T21:05:01.764Z,100181.50
2023-06-11T21:08:04.772Z,100187.38
2023-06-11T21:11:07.803Z,100198.56
2023-06-11T21:14:14.727Z,100203.37
2023-06-11T21:17:18.455Z,100197.25
2023-06-11T21:20:21.215Z,100202.16
2023-06-11T21:23:24.870Z,100192.66
2023-06-11T21:26:27.488Z,100204.66
2023-06-11T21:29:30.680Z,100200.59
2023-06-11T21:32:33.525Z,100205.66
2023-06-11T21:35:36.673Z,100202.13
2023-06-11T21:38:39.354Z,100207.88
2023-06-11T21:41:42.418Z,100216.59
2023-06-11T21:44:45.069Z,100207.13
2023-06-11T21:47:48.502Z,100213.37
2023-06-11T21:50:51.362Z,100212.78
2023-06-11T21:53:54.465Z,100224.09
2023-06-11T21:56:57.739Z,100221.16
2023-06-11T22:00:13.505Z,100218.97
2023-06-11T22:03:18.616Z,100218.41
2023-06-11T22:06:21.761Z,100216.03
2023-06-11T22:09:27.630Z,100217.13
2023-06-11T22:12:41.126Z,100212.00
2023-06-11T22:15:45.343Z,100215.19
2023-06-11T22:18:49.985Z,100220.13
2023-06-11T22:21:53.890Z,100221.28
2023-06-11T22:24:59.065Z,100211.09
2023-06-11T22:28:02.329Z,100206.47
2023-06-11T22:31:05.513Z,100208.09
2023-06-11T22:34:08.652Z,100209.56
2023-06-11T22:37:11.398Z,100201.41
2023-06-11T22:40:15.054Z,100198.09
2023-06-11T22:43:18.117Z,100202.34
2023-06-11T22:46:21.442Z,100217.28
2023-06-11T22:49:25.066Z,100209.41
2023-06-11T22:52:30.914Z,100204.13
2023-06-11T22:55:33.795Z,100196.84
2023-06-11T22:58:37.046Z,100192.72
2023-06-11T23:01:40.403Z,100195.91
2023-06-11T23:04:43.516Z,100187.78
2023-06-11T23:07:47.800Z,100191.69
2023-06-11T23:10:50.927Z,100184.88
2023-06-11T23:13:53.609Z,100188.50
2023-06-11T23:16:59.739Z,100181.25
2023-06-11T23:20:03.958Z,100197.31
2023-06-11T23:23:07.137Z,100185.63
2023-06-11T23:26:10.854Z,100188.84
2023-06-11T23:29:16.382Z,100179.63
2023-06-11T23:32:20.062Z,100175.59
2023-06-11T23:35:23.284Z,100185.38
2023-06-11T23:38:32.402Z,100174.34
2023-06-11T23:41:35.788Z,100175.63
2023-06-11T23:44:39.197Z,100186.50
2023-06-11T23:47:45.479Z,100184.97
2023-06-11T23:50:48.382Z,100189.03
2023-06-11T23:53:52.926Z,100178.00
2023-06-11T23:56:55.703Z,100183.84
2023-06-11T23:59:58.687Z,100183.91
